Bedford Park, Illinois
Current Conditions -  °F | °C
As of 4:53 AM on Friday 28 Nov 2014 (Local Time) from KMDW Reporting Station
Light Snow Light Snow  
Wind Chill: 16°   Ceiling: 8000
Heat Index: 22°   Visibility: 9mi
Dew Point: 13°   Wind: 5mph
Humidity: 68%   Direction: 170°S
Pressure: 30.33"   Gusts: NA
Location:  41.76°N, 87.8°W
Report Text: KMDW 281053Z 17004KT 9SM -SN OVC080 M06/M11 A3033 RMK AO2 SNB38 SLP287 P0000 T10561106 $
Loading
Personal Weather Stations






























Interactive Weather Map New forecast layout! Learn more

10-Day Weather Forecast

Advertisements
Track Severe Weather on mobile